createdAt,value
2017-10-03T00:01:57.141Z,4.63
2017-10-03T00:04:24.755Z,4.80
2017-10-03T00:06:52.428Z,5.30
2017-10-03T00:09:20.064Z,3.80
2017-10-03T00:11:47.669Z,4.33
2017-10-03T00:14:15.321Z,4.50
2017-10-03T00:16:42.937Z,4.33
2017-10-03T00:19:10.670Z,4.17
2017-10-03T00:21:38.316Z,4.47
2017-10-03T00:24:05.989Z,4.23
2017-10-03T00:26:33.553Z,3.37
2017-10-03T00:29:01.269Z,4.03
2017-10-03T00:31:28.813Z,4.90
2017-10-03T00:33:56.374Z,4.53
2017-10-03T00:36:23.956Z,5.40
2017-10-03T00:38:51.567Z,4.50
2017-10-03T00:41:19.141Z,4.57
2017-10-03T00:43:46.700Z,5.10
2017-10-03T00:46:14.321Z,4.00
2017-10-03T00:48:41.906Z,4.40
2017-10-03T00:51:09.501Z,4.30
2017-10-03T00:53:37.103Z,4.27
2017-10-03T00:56:04.653Z,4.43
2017-10-03T00:58:32.217Z,5.00
2017-10-03T01:01:00.664Z,4.00
2017-10-03T01:03:28.237Z,4.50
2017-10-03T01:05:55.934Z,5.00
2017-10-03T01:08:23.654Z,4.73
2017-10-03T01:10:51.267Z,5.00
2017-10-03T01:13:19.614Z,4.60
2017-10-03T01:15:47.125Z,4.43
2017-10-03T01:18:14.675Z,3.73
2017-10-03T01:20:42.182Z,4.80
2017-10-03T01:23:09.742Z,4.30
2017-10-03T01:25:37.350Z,4.67
2017-10-03T01:28:05.764Z,4.20
2017-10-03T01:30:33.279Z,4.40
2017-10-03T01:33:01.944Z,4.20
2017-10-03T01:35:30.333Z,5.30
2017-10-03T01:38:06.081Z,5.50
2017-10-03T01:40:33.755Z,5.20
2017-10-03T01:43:01.423Z,4.67
2017-10-03T01:45:29.790Z,4.53
2017-10-03T01:47:57.446Z,5.20
2017-10-03T01:50:25.051Z,3.50
2017-10-03T01:52:52.626Z,3.67
2017-10-03T01:55:20.286Z,3.77
2017-10-03T01:57:47.961Z,3.30
2017-10-03T02:00:16.335Z,3.77
2017-10-03T02:02:43.839Z,4.27
2017-10-03T02:05:11.379Z,3.90
2017-10-03T02:07:38.888Z,3.70
2017-10-03T02:10:06.443Z,3.00
2017-10-03T02:12:33.956Z,2.83
2017-10-03T02:15:01.877Z,2.90
2017-10-03T02:17:29.390Z,3.27
2017-10-03T02:19:56.930Z,3.40
2017-10-03T02:22:24.466Z,3.10
2017-10-03T02:24:51.975Z,3.20
2017-10-03T02:27:19.508Z,3.70
2017-10-03T02:29:47.010Z,3.30
2017-10-03T02:32:14.567Z,3.50
2017-10-03T02:34:42.071Z,3.93
2017-10-03T02:37:09.615Z,3.93
2017-10-03T02:39:37.121Z,3.10
2017-10-03T02:42:05.445Z,2.43
2017-10-03T02:44:32.966Z,3.50
2017-10-03T02:47:00.503Z,3.77
2017-10-03T02:49:28.015Z,3.80
2017-10-03T02:51:55.658Z,3.37
2017-10-03T02:54:23.173Z,3.73
2017-10-03T02:56:50.675Z,2.90
2017-10-03T02:59:18.206Z,3.60
2017-10-03T03:01:45.726Z,2.80
2017-10-03T03:04:13.262Z,3.30
2017-10-03T03:06:40.778Z,3.00
2017-10-03T03:09:08.327Z,3.37
2017-10-03T03:11:35.986Z,3.50
2017-10-03T03:14:04.289Z,2.90
2017-10-03T03:16:31.795Z,2.50
2017-10-03T03:18:59.334Z,3.53
2017-10-03T03:21:26.835Z,2.90
2017-10-03T03:23:54.778Z,3.03
2017-10-03T03:26:23.237Z,2.97
2017-10-03T03:28:50.877Z,4.13
2017-10-03T03:31:18.454Z,3.73
2017-10-03T03:33:46.482Z,3.80
2017-10-03T03:36:14.029Z,3.53
2017-10-03T03:38:41.530Z,3.87
2017-10-03T03:41:09.070Z,3.17
2017-10-03T03:43:36.619Z,3.73
2017-10-03T03:46:04.158Z,3.97
2017-10-03T03:48:32.435Z,4.30
2017-10-03T03:50:59.968Z,4.80
2017-10-03T03:53:27.491Z,5.17
2017-10-03T03:55:55.786Z,4.00
2017-10-03T03:58:24.062Z,4.27
2017-10-03T04:00:52.479Z,4.03
2017-10-03T04:03:19.974Z,3.40
2017-10-03T04:05:47.474Z,5.00
2017-10-03T04:08:15.011Z,3.73
2017-10-03T04:10:42.510Z,3.50
2017-10-03T04:13:10.052Z,3.20
2017-10-03T04:15:37.554Z,3.97
2017-10-03T04:18:05.096Z,4.33
2017-10-03T04:20:32.624Z,5.67
2017-10-03T04:23:00.170Z,3.73
2017-10-03T04:25:27.691Z,3.60
2017-10-03T04:27:55.238Z,4.93
2017-10-03T04:30:22.744Z,4.50
2017-10-03T04:32:50.282Z,4.57
2017-10-03T04:35:18.574Z,5.43
2017-10-03T04:37:47.091Z,6.03
2017-10-03T04:40:14.604Z,4.90
2017-10-03T04:42:42.110Z,4.40
2017-10-03T04:45:10.418Z,6.50
2017-10-03T04:47:37.921Z,5.50
2017-10-03T04:50:05.478Z,5.70
2017-10-03T04:52:32.981Z,5.60
2017-10-03T04:55:00.518Z,5.73
2017-10-03T04:57:28.028Z,5.90
2017-10-03T04:59:55.567Z,7.40
2017-10-03T05:02:23.070Z,6.43
2017-10-03T05:04:50.855Z,7.67
2017-10-03T05:07:18.367Z,7.47
2017-10-03T05:09:46.629Z,7.53
2017-10-03T05:12:14.138Z,8.43
2017-10-03T05:14:41.790Z,8.93
2017-10-03T05:17:10.104Z,9.40
2017-10-03T05:19:37.627Z,10.10
2017-10-03T05:22:05.207Z,9.20
2017-10-03T05:24:32.718Z,9.87
2017-10-03T05:27:00.301Z,9.27
2017-10-03T05:29:27.829Z,8.93
2017-10-03T05:31:55.467Z,9.13
2017-10-03T05:34:23.061Z,9.53
2017-10-03T05:36:51.447Z,9.70
2017-10-03T05:39:18.958Z,11.00
2017-10-03T05:41:47.234Z,12.03
2017-10-03T05:44:15.542Z,11.20
2017-10-03T05:46:43.062Z,10.30
2017-10-03T05:49:10.618Z,10.10
2017-10-03T05:51:38.128Z,11.40
2017-10-03T05:54:05.676Z,11.93
2017-10-03T05:56:33.184Z,11.37
2017-10-03T05:59:00.741Z,10.70
2017-10-03T06:01:28.262Z,12.37
2017-10-03T06:03:55.826Z,12.47
2017-10-03T06:06:23.339Z,12.20
2017-10-03T06:08:50.899Z,12.80
2017-10-03T06:11:18.409Z,12.77
2017-10-03T06:13:45.955Z,14.30
2017-10-03T06:16:13.490Z,13.80
2017-10-03T06:18:41.011Z,12.03
2017-10-03T06:21:08.554Z,12.87
2017-10-03T06:23:36.159Z,12.13
2017-10-03T06:26:03.708Z,12.33
2017-10-03T06:28:31.232Z,11.17
2017-10-03T06:30:58.842Z,11.43
2017-10-03T06:33:26.430Z,9.83
2017-10-03T06:35:54.010Z,10.47
2017-10-03T06:38:21.519Z,10.40
2017-10-03T06:40:49.381Z,10.60
2017-10-03T06:43:16.883Z,10.43
2017-10-03T06:45:44.389Z,8.23
2017-10-03T06:48:11.938Z,8.60
2017-10-03T06:50:39.438Z,8.63
2017-10-03T06:53:07.048Z,7.83
2017-10-03T06:55:34.578Z,8.97
2017-10-03T06:58:02.126Z,7.70
2017-10-03T07:00:29.634Z,7.57
2017-10-03T07:02:59.503Z,7.10
2017-10-03T07:05:27.191Z,7.90
2017-10-03T07:07:54.829Z,7.60
2017-10-03T07:10:22.340Z,8.17
2017-10-03T07:12:49.850Z,9.13
2017-10-03T07:15:18.715Z,7.30
2017-10-03T07:17:46.262Z,7.40
2017-10-03T07:20:14.175Z,7.80
2017-10-03T07:22:43.102Z,8.57
2017-10-03T07:25:11.037Z,6.93
2017-10-03T07:27:38.597Z,7.27
2017-10-03T07:30:06.906Z,7.90
2017-10-03T07:32:35.176Z,8.93
2017-10-03T07:35:02.715Z,8.97
2017-10-03T07:37:30.219Z,9.60
2017-10-03T07:39:57.758Z,9.47
2017-10-03T07:42:25.279Z,9.90
2017-10-03T07:44:53.576Z,9.63
2017-10-03T07:47:21.083Z,10.60
2017-10-03T07:49:48.738Z,10.20
2017-10-03T07:52:16.742Z,8.37
2017-10-03T07:54:44.255Z,7.77
2017-10-03T07:57:12.610Z,8.03
2017-10-03T07:59:40.118Z,9.07
2017-10-03T08:02:07.661Z,10.33
2017-10-03T08:04:35.626Z,7.97
2017-10-03T08:07:03.169Z,8.27
2017-10-03T08:09:30.667Z,9.33
2017-10-03T08:11:58.402Z,6.87
2017-10-03T08:14:26.670Z,7.60
2017-10-03T08:16:54.324Z,5.93
2017-10-03T08:19:21.859Z,7.80
2017-10-03T08:21:49.363Z,6.80
2017-10-03T08:24:16.913Z,6.70
2017-10-03T08:26:44.448Z,7.43
2017-10-03T08:29:11.982Z,6.90
2017-10-03T08:31:39.486Z,6.60
2017-10-03T08:34:07.031Z,6.37
2017-10-03T08:36:34.537Z,7.17
2017-10-03T08:39:02.991Z,5.43
2017-10-03T08:41:30.491Z,5.80
2017-10-03T08:43:58.798Z,5.00
2017-10-03T08:46:26.375Z,5.27
2017-10-03T08:48:54.650Z,4.30
2017-10-03T08:51:22.951Z,3.90
2017-10-03T08:53:50.446Z,4.13
2017-10-03T08:56:17.982Z,4.23
2017-10-03T08:58:46.258Z,4.30
2017-10-03T09:01:13.795Z,3.90
2017-10-03T09:03:41.291Z,3.40
2017-10-03T09:06:08.984Z,3.73
2017-10-03T09:08:37.258Z,3.40
2017-10-03T09:11:04.764Z,4.40
2017-10-03T09:13:32.318Z,3.60
2017-10-03T09:15:59.819Z,5.23
2017-10-03T09:18:28.138Z,4.33
2017-10-03T09:20:55.646Z,5.50
2017-10-03T09:23:23.195Z,4.77
2017-10-03T09:25:50.690Z,3.20
2017-10-03T09:28:18.239Z,4.57
2017-10-03T09:30:45.755Z,4.30
2017-10-03T09:33:13.372Z,3.30
2017-10-03T09:35:40.995Z,5.33
2017-10-03T09:38:08.818Z,3.27
2017-10-03T09:40:37.160Z,3.13
2017-10-03T09:43:04.673Z,2.97
2017-10-03T09:45:32.245Z,3.60
2017-10-03T09:47:59.757Z,3.20
2017-10-03T09:50:27.291Z,3.90
2017-10-03T09:52:54.823Z,3.20
2017-10-03T09:55:22.570Z,3.23
2017-10-03T09:57:50.090Z,3.13
2017-10-03T10:00:18.413Z,2.40
2017-10-03T10:02:45.919Z,2.80
2017-10-03T10:05:13.508Z,3.47
2017-10-03T10:07:41.798Z,2.67
2017-10-03T10:10:09.578Z,2.53
2017-10-03T10:12:37.118Z,2.40
2017-10-03T10:15:04.636Z,2.90
2017-10-03T10:17:32.958Z,2.63
2017-10-03T10:20:00.492Z,2.73
2017-10-03T10:22:28.811Z,3.20
2017-10-03T10:24:56.318Z,3.05
2017-10-03T10:27:23.854Z,3.13
2017-10-03T10:29:51.365Z,3.00
2017-10-03T10:32:18.914Z,3.57
2017-10-03T10:34:46.418Z,3.13
2017-10-03T10:37:13.951Z,2.53
2017-10-03T10:39:41.559Z,2.97
2017-10-03T10:42:09.569Z,3.20
2017-10-03T10:44:37.842Z,3.37
2017-10-03T10:47:05.399Z,2.37
2017-10-03T10:49:32.942Z,2.10
2017-10-03T10:52:00.438Z,1.97
2017-10-03T10:54:28.019Z,2.53
2017-10-03T10:56:55.519Z,3.00
2017-10-03T10:59:23.833Z,3.03
2017-10-03T11:01:51.321Z,2.73
2017-10-03T11:04:18.831Z,2.40
2017-10-03T11:06:46.363Z,2.97
2017-10-03T11:09:13.869Z,26.03
2017-10-03T11:11:41.400Z,2.80
2017-10-03T11:14:08.902Z,2.70
2017-10-03T11:16:36.434Z,3.00
2017-10-03T11:19:03.934Z,2.80
2017-10-03T11:21:31.467Z,2.57
2017-10-03T11:24:10.798Z,3.07
2017-10-03T11:26:39.102Z,3.10
2017-10-03T11:29:06.632Z,2.63
2017-10-03T11:31:34.318Z,2.57
2017-10-03T11:34:01.832Z,3.77
2017-10-03T11:36:29.367Z,3.40
2017-10-03T11:38:56.914Z,2.53
2017-10-03T11:41:24.410Z,2.63
2017-10-03T11:43:52.017Z,3.07
2017-10-03T11:46:19.518Z,2.60
2017-10-03T11:48:47.049Z,3.13
2017-10-03T11:51:15.326Z,3.50
2017-10-03T11:53:43.625Z,2.37
2017-10-03T11:56:11.150Z,2.73
2017-10-03T11:58:39.078Z,2.67
2017-10-03T12:01:07.338Z,2.50
2017-10-03T12:03:34.846Z,2.40
2017-10-03T12:06:03.316Z,3.13
2017-10-03T12:08:30.823Z,2.23
2017-10-03T12:10:58.370Z,3.40
2017-10-03T12:13:25.898Z,4.83
2017-10-03T12:15:53.447Z,3.33
2017-10-03T12:18:21.076Z,5.70
2017-10-03T12:20:49.594Z,3.20
2017-10-03T12:23:17.876Z,10.10
2017-10-03T12:25:45.398Z,5.97
2017-10-03T12:28:13.180Z,16.23
2017-10-03T12:30:40.705Z,6.17
2017-10-03T12:33:09.378Z,15.63
2017-10-03T12:35:36.902Z,3.60
2017-10-03T12:38:04.418Z,3.33
2017-10-03T12:40:32.767Z,3.00
2017-10-03T12:43:00.282Z,3.47
2017-10-03T12:45:27.859Z,3.07
2017-10-03T12:47:55.417Z,2.70
2017-10-03T12:50:22.966Z,4.50
2017-10-03T12:52:50.564Z,2.43
2017-10-03T12:55:18.842Z,2.37
2017-10-03T12:57:47.267Z,2.10
2017-10-03T13:00:15.595Z,2.17
2017-10-03T13:02:43.134Z,2.77
2017-10-03T13:05:11.439Z,2.10
2017-10-03T13:07:39.050Z,2.30
2017-10-03T13:10:06.567Z,2.63
2017-10-03T13:12:34.891Z,3.10
2017-10-03T13:15:02.403Z,2.10
2017-10-03T13:17:29.963Z,2.37
2017-10-03T13:19:57.482Z,2.23
2017-10-03T13:22:25.075Z,1.80
2017-10-03T13:24:52.577Z,2.40
2017-10-03T13:27:20.234Z,2.07
2017-10-03T13:29:47.850Z,1.97
2017-10-03T13:32:15.392Z,2.30
2017-10-03T13:34:42.952Z,2.07
2017-10-03T13:37:10.466Z,2.77
2017-10-03T13:39:38.006Z,3.60
2017-10-03T13:42:05.548Z,2.17
2017-10-03T13:44:33.102Z,2.10
2017-10-03T13:47:01.448Z,2.20
2017-10-03T13:49:29.186Z,2.80
2017-10-03T13:51:56.710Z,3.00
2017-10-03T13:54:24.230Z,3.00
2017-10-03T13:56:51.927Z,3.50
2017-10-03T13:59:19.442Z,14.30
2017-10-03T14:01:46.986Z,5.03
2017-10-03T14:04:14.502Z,2.30
2017-10-03T14:06:42.867Z,2.83
2017-10-03T14:09:10.379Z,2.67
2017-10-03T14:11:38.730Z,2.80
2017-10-03T14:14:06.281Z,2.33
2017-10-03T14:16:34.042Z,2.73
2017-10-03T14:19:01.550Z,2.93
2017-10-03T14:21:29.063Z,2.60
2017-10-03T14:23:56.603Z,2.27
2017-10-03T14:26:24.108Z,2.90
2017-10-03T14:28:51.658Z,2.30
2017-10-03T14:31:19.940Z,2.80
2017-10-03T14:33:48.242Z,3.03
2017-10-03T14:36:16.510Z,2.87
2017-10-03T14:38:44.051Z,3.30
2017-10-03T14:41:11.562Z,3.10
2017-10-03T14:43:39.389Z,3.20
2017-10-03T14:46:06.890Z,3.23
2017-10-03T14:48:34.406Z,2.87
2017-10-03T14:51:01.951Z,3.30
2017-10-03T14:53:29.487Z,2.73
2017-10-03T14:55:57.186Z,3.20
2017-10-03T14:58:25.310Z,2.17
2017-10-03T15:00:52.884Z,3.50
2017-10-03T15:03:20.989Z,2.77
2017-10-03T15:05:48.555Z,2.87
2017-10-03T15:08:16.058Z,2.63
2017-10-03T15:10:44.606Z,2.53
2017-10-03T15:13:12.873Z,2.40
2017-10-03T15:15:40.365Z,2.50
2017-10-03T15:18:08.673Z,2.30
2017-10-03T15:20:36.185Z,2.63
2017-10-03T15:23:04.257Z,2.30
2017-10-03T15:25:32.466Z,2.43
2017-10-03T15:28:00.848Z,2.47
2017-10-03T15:30:28.505Z,2.37
2017-10-03T15:32:56.272Z,3.00
2017-10-03T15:35:23.886Z,3.10
2017-10-03T15:37:51.530Z,2.80
2017-10-03T15:40:19.097Z,2.67
2017-10-03T15:42:46.970Z,2.87
2017-10-03T15:45:14.544Z,2.57
2017-10-03T15:47:42.794Z,2.20
2017-10-03T15:50:11.216Z,2.70
2017-10-03T15:52:38.804Z,2.93
2017-10-03T15:55:06.632Z,2.57
2017-10-03T15:57:34.249Z,3.30
2017-10-03T16:00:02.595Z,2.63
2017-10-03T16:02:30.101Z,3.00
2017-10-03T16:04:58.028Z,2.50
2017-10-03T16:07:25.670Z,2.87
2017-10-03T16:09:53.322Z,3.40
2017-10-03T16:12:20.890Z,2.73
2017-10-03T16:14:48.399Z,2.97
2017-10-03T16:17:15.943Z,2.07
2017-10-03T16:19:43.450Z,2.67
2017-10-03T16:22:10.986Z,2.27
2017-10-03T16:24:38.719Z,2.03
2017-10-03T16:27:06.638Z,1.80
2017-10-03T16:29:35.530Z,2.07
2017-10-03T16:32:03.815Z,2.30
2017-10-03T16:34:31.398Z,2.20
2017-10-03T16:36:59.187Z,1.67
2017-10-03T16:39:26.773Z,2.67
2017-10-03T16:42:04.325Z,2.70
2017-10-03T16:44:32.684Z,2.77
2017-10-03T16:47:00.205Z,2.73
2017-10-03T16:49:27.759Z,2.83
2017-10-03T16:51:55.283Z,2.23
2017-10-03T16:54:22.939Z,2.67
2017-10-03T16:56:50.438Z,2.60
2017-10-03T16:59:17.946Z,3.10
2017-10-03T17:01:45.570Z,3.23
2017-10-03T17:04:13.088Z,3.17
2017-10-03T17:06:40.645Z,3.40
2017-10-03T17:09:08.156Z,2.80
2017-10-03T17:11:35.706Z,4.10
2017-10-03T17:14:03.208Z,3.60
2017-10-03T17:16:31.559Z,3.57
2017-10-03T17:18:59.066Z,3.23
2017-10-03T17:21:27.495Z,3.50
2017-10-03T17:23:55.089Z,4.10
2017-10-03T17:26:23.674Z,3.43
2017-10-03T17:28:51.224Z,12.07
2017-10-03T17:31:18.762Z,11.93
2017-10-03T17:33:46.493Z,8.80
2017-10-03T17:36:14.062Z,10.60
2017-10-03T17:38:43.612Z,9.10
2017-10-03T17:41:11.134Z,4.73
2017-10-03T17:43:38.812Z,5.10
2017-10-03T17:46:06.328Z,2.90
2017-10-03T17:48:33.887Z,3.50
2017-10-03T17:51:01.429Z,4.23
2017-10-03T17:53:29.317Z,3.80
2017-10-03T17:55:56.864Z,3.30
2017-10-03T17:58:24.394Z,4.30
2017-10-03T18:00:51.998Z,4.30
2017-10-03T18:03:19.503Z,3.50
2017-10-03T18:05:47.063Z,3.70
2017-10-03T18:08:14.574Z,4.83
2017-10-03T18:10:43.318Z,3.50
2017-10-03T18:13:11.707Z,3.60
2017-10-03T18:15:40.031Z,4.40
2017-10-03T18:18:07.550Z,3.27
2017-10-03T18:20:35.207Z,3.60
2017-10-03T18:23:02.757Z,4.03
2017-10-03T18:25:30.265Z,4.03
2017-10-03T18:27:57.858Z,3.80
2017-10-03T18:30:25.385Z,3.07
2017-10-03T18:32:52.949Z,3.93
2017-10-03T18:35:20.741Z,5.17
2017-10-03T18:37:48.367Z,4.13
2017-10-03T18:40:15.890Z,4.37
2017-10-03T18:42:43.585Z,4.73
2017-10-03T18:45:11.323Z,4.53
2017-10-03T18:47:39.030Z,4.00
2017-10-03T18:50:06.574Z,4.10
2017-10-03T18:52:34.094Z,4.40
2017-10-03T18:55:01.644Z,3.10
2017-10-03T18:57:29.631Z,4.50
2017-10-03T18:59:57.279Z,3.47
2017-10-03T19:02:24.851Z,4.67
2017-10-03T19:04:52.556Z,4.17
2017-10-03T19:07:20.087Z,4.13
2017-10-03T19:09:48.026Z,3.63
2017-10-03T19:12:15.579Z,3.80
2017-10-03T19:14:43.088Z,4.67
2017-10-03T19:17:10.668Z,4.10
2017-10-03T19:19:38.233Z,4.30
2017-10-03T19:22:06.050Z,3.80
2017-10-03T19:24:33.562Z,4.03
2017-10-03T19:27:01.861Z,4.57
2017-10-03T19:29:30.226Z,3.90
2017-10-03T19:31:57.757Z,4.23
2017-10-03T19:34:25.306Z,5.07
2017-10-03T19:36:53.164Z,4.40
2017-10-03T19:39:20.787Z,5.03
2017-10-03T19:41:48.362Z,4.40
2017-10-03T19:44:15.953Z,5.87
2017-10-03T19:46:43.482Z,4.67
2017-10-03T19:49:11.246Z,5.00
2017-10-03T19:51:38.786Z,4.67
2017-10-03T19:54:06.329Z,4.83
2017-10-03T19:56:33.991Z,3.43
2017-10-03T19:59:01.507Z,4.30
2017-10-03T20:01:29.066Z,4.60
2017-10-03T20:03:56.575Z,4.97
2017-10-03T20:06:24.131Z,3.67
2017-10-03T20:08:51.769Z,4.63
2017-10-03T20:11:19.479Z,3.77
2017-10-03T20:13:46.994Z,3.60
2017-10-03T20:16:14.519Z,3.63
2017-10-03T20:18:42.076Z,4.40
2017-10-03T20:21:09.582Z,4.13
2017-10-03T20:23:37.932Z,4.07
2017-10-03T20:26:05.469Z,4.67
2017-10-03T20:28:33.022Z,3.80
2017-10-03T20:31:01.299Z,4.67
2017-10-03T20:33:28.842Z,4.70
2017-10-03T20:35:56.348Z,3.60
2017-10-03T20:38:25.068Z,3.50
2017-10-03T20:40:52.594Z,3.80
2017-10-03T20:43:20.268Z,3.90
2017-10-03T20:45:48.623Z,3.80
2017-10-03T20:48:16.126Z,4.70
2017-10-03T20:50:43.677Z,3.57
2017-10-03T20:53:11.170Z,4.77
2017-10-03T20:55:38.727Z,3.53
2017-10-03T20:58:06.232Z,4.80
2017-10-03T21:00:33.788Z,3.30
2017-10-03T21:03:01.313Z,3.70
2017-10-03T21:05:29.630Z,3.90
2017-10-03T21:07:57.162Z,3.30
2017-10-03T21:10:25.626Z,3.33
2017-10-03T21:12:53.126Z,4.20
2017-10-03T21:15:20.630Z,4.20
2017-10-03T21:17:48.938Z,3.70
2017-10-03T21:20:16.437Z,3.70
2017-10-03T21:22:43.988Z,4.30
2017-10-03T21:25:11.484Z,3.33
2017-10-03T21:27:39.021Z,3.63
2017-10-03T21:30:06.541Z,4.00
2017-10-03T21:32:34.869Z,2.43
2017-10-03T21:35:02.425Z,3.57
2017-10-03T21:37:30.615Z,3.33
2017-10-03T21:39:58.126Z,3.30
2017-10-03T21:45:32.447Z,4.07
2017-10-03T21:48:00.434Z,4.13
2017-10-03T21:50:27.952Z,4.03
2017-10-03T21:52:56.075Z,3.57
2017-10-03T21:55:24.393Z,3.60
2017-10-03T21:57:52.023Z,2.80
2017-10-03T22:00:19.586Z,3.20
2017-10-03T22:02:47.122Z,3.57
2017-10-03T22:05:14.666Z,3.37
2017-10-03T22:07:42.170Z,3.20
2017-10-03T22:10:09.708Z,3.00
2017-10-03T22:12:37.211Z,3.03
2017-10-03T22:15:04.973Z,3.10
2017-10-03T22:17:32.955Z,3.20
2017-10-03T22:20:00.594Z,2.90
2017-10-03T22:22:28.876Z,3.20
2017-10-03T22:24:56.787Z,3.70
2017-10-03T22:27:24.291Z,4.50
2017-10-03T22:29:51.802Z,3.73
2017-10-03T22:32:19.351Z,3.30
2017-10-03T22:34:46.859Z,3.50
2017-10-03T22:37:14.403Z,3.40
2017-10-03T22:39:41.908Z,3.20
2017-10-03T22:42:10.368Z,3.37
2017-10-03T22:44:37.866Z,3.30
2017-10-03T22:47:06.132Z,3.00
2017-10-03T22:49:33.671Z,3.10
2017-10-03T22:54:57.870Z,3.00
2017-10-03T22:57:25.442Z,3.60
2017-10-03T22:59:52.930Z,3.13
2017-10-03T23:02:20.511Z,4.10
2017-10-03T23:04:48.058Z,3.27
2017-10-03T23:07:15.555Z,3.43
2017-10-03T23:09:43.092Z,3.57
2017-10-03T23:12:11.362Z,3.67
2017-10-03T23:14:39.630Z,2.87
2017-10-03T23:17:07.122Z,3.37
2017-10-03T23:19:34.679Z,3.60
2017-10-03T23:22:02.174Z,3.60
2017-10-03T23:24:29.782Z,3.20
2017-10-03T23:26:57.574Z,3.17
2017-10-03T23:29:25.079Z,2.90
2017-10-03T23:31:52.616Z,3.80
2017-10-03T23:34:20.418Z,3.27
2017-10-03T23:36:48.754Z,2.90
2017-10-03T23:39:16.258Z,3.10
2017-10-03T23:41:43.789Z,2.83
2017-10-03T23:44:11.291Z,3.13
2017-10-03T23:46:38.842Z,5.50
2017-10-03T23:49:07.111Z,3.00
2017-10-03T23:51:34.621Z,2.47
2017-10-03T23:54:02.527Z,2.83
2017-10-03T23:56:30.038Z,3.50
2017-10-03T23:58:58.370Z,2.87
